UDYZ Airport Information

Runway Information
Runway 09 Length 12629 ft width 184 ft
Elevation 2800 ft Threshold 0 ft Heading 90
Runway 27 Length 12629 ft Width 184 ft
Elevation 2838 ft Threshold 0 ft Heading 270
Airport Frequencies
Type APP Name YEREVAN AP Frequency 126 MHZ
Type ATIS Name ATIS Frequency 119.5 MHZ
Type GND Name YEREVAN GN Frequency 119 MHZ
Type TWR Name YEREVAN TW Frequency 128 MHZ
Airport Navaids
Airport Weather Information & NOTAM
ADDS - METARS form results

(0506 UTC 23 January 2022)
Data provider http://aviationweather.gov/metar/data/
 
METAR text: UDYZ 230500Z 24001KT 3500 BR NSC M12/M15 Q1020 R09/010070 NOSIG
Conditions at: UDYZ (ZVARTNOTS , AM) observed 0500 UTC 23 January 2022
Temperature: -12.0°C (10°F)
Dewpoint: -15.0°C ( 5°F) [RH = 78%]
Pressure (altimeter): 30.12 inches Hg (1020.0 mb)
Winds: from the WSW (240 degrees) at 1 MPH (1 knots; 0.5 m/s)
Visibility: 2.17 miles (3.49 km)
Ceiling: at least 12,000 feet AGL
Clouds: sky clear below 12,000 feet AGL
Weather: BR  (mist)

METAR text: UDYZ 230430Z 00000KT 3500 BR NSC M12/M15 Q1019 R09/010070 NOSIG
Conditions at: UDYZ (ZVARTNOTS , AM) observed 0430 UTC 23 January 2022
Temperature: -12.0°C (10°F)
Dewpoint: -15.0°C ( 5°F) [RH = 78%]
Pressure (altimeter): 30.09 inches Hg (1019.0 mb)
Winds: calm
Visibility: 2.17 miles (3.49 km)
Ceiling: at least 12,000 feet AGL
Clouds: sky clear below 12,000 feet AGL
Weather: BR  (mist)

Forecast for: UDYZ (ZVARTNOTS , AM)
Text: TAF UDYZ 222300Z 2300/2324 VRB04KT 6000 NSC
Forecast period: 0000 UTC 23 January 2022 to 0000 UTC 24 January 2022
Forecast type: FROM: standard forecast or significant change
Winds: variable direction winds at 5 MPH (4 knots; 2.1 m/s)
Visibility: 4 miles (6 km)
Ceiling: unknown
Clouds: missing
Weather: no significant weather forecast for this period
Text: TEMPO 2300/2306 1000 BR
Forecast period: 0000 to 0600 UTC 23 January 2022
Forecast type: TEMPORARY: The following changes expected for less than half the time period
Visibility: 0.62 miles (1.00 km)
Ceiling: unknown
Clouds: missing
Weather: BR  (mist)